createdAt,value
2019-04-25T00:00:04.172Z,809.87
2019-04-25T00:01:04.181Z,809.92
2019-04-25T00:02:04.191Z,809.94
2019-04-25T00:03:04.203Z,810.01
2019-04-25T00:04:04.214Z,809.94
2019-04-25T00:05:04.227Z,809.99
2019-04-25T00:06:04.237Z,809.97
2019-04-25T00:07:04.248Z,809.98
2019-04-25T00:08:04.263Z,809.96
2019-04-25T00:09:04.271Z,809.96
2019-04-25T00:10:04.282Z,809.94
2019-04-25T00:11:04.298Z,809.90
2019-04-25T00:12:04.305Z,809.95
2019-04-25T00:13:04.316Z,809.96
2019-04-25T00:14:04.326Z,809.92
2019-04-25T00:15:04.339Z,809.94
2019-04-25T00:16:04.348Z,809.96
2019-04-25T00:17:04.361Z,809.95
2019-04-25T00:18:04.380Z,809.98
2019-04-25T00:19:04.382Z,809.98
2019-04-25T00:20:04.397Z,810.01
2019-04-25T00:21:04.412Z,810.01
2019-04-25T00:22:04.416Z,810.03
2019-04-25T00:23:04.427Z,810.07
2019-04-25T00:24:04.442Z,810.08
2019-04-25T00:25:15.198Z,810.08
2019-04-25T00:26:04.461Z,810.13
2019-04-25T00:27:04.473Z,810.14
2019-04-25T00:28:04.484Z,810.08
2019-04-25T00:29:04.503Z,810.03
2019-04-25T00:30:04.514Z,810.06
2019-04-25T00:31:04.526Z,810.05
2019-04-25T00:32:04.532Z,810.08
2019-04-25T00:33:04.542Z,810.07
2019-04-25T00:34:04.558Z,810.07
2019-04-25T00:35:04.577Z,810.04
2019-04-25T00:36:04.574Z,810.05
2019-04-25T00:37:04.592Z,810.04
2019-04-25T00:38:04.600Z,810.08
2019-04-25T00:39:04.612Z,810.07
2019-04-25T00:40:04.627Z,810.08
2019-04-25T00:41:04.633Z,810.06
2019-04-25T00:42:04.653Z,810.07
2019-04-25T00:43:04.658Z,810.07
2019-04-25T00:44:04.674Z,810.11
2019-04-25T00:45:04.679Z,810.09
2019-04-25T00:46:04.690Z,810.13
2019-04-25T00:47:04.706Z,810.14
2019-04-25T00:48:04.718Z,810.15
2019-04-25T00:49:04.730Z,810.11
2019-04-25T00:50:04.743Z,810.10
2019-04-25T00:51:04.752Z,810.10
2019-04-25T00:52:04.764Z,810.11
2019-04-25T00:53:04.772Z,810.17
2019-04-25T00:54:04.784Z,810.16
2019-04-25T00:55:04.795Z,810.16
2019-04-25T00:56:04.811Z,810.14
2019-04-25T00:57:04.821Z,810.13
2019-04-25T00:58:04.829Z,810.11
2019-04-25T00:59:04.844Z,810.12
2019-04-25T01:00:04.854Z,810.11
2019-04-25T01:01:04.868Z,810.16
2019-04-25T01:02:07.558Z,810.13
2019-04-25T01:03:04.893Z,810.17
2019-04-25T01:04:04.899Z,810.13
2019-04-25T01:05:04.915Z,810.10
2019-04-25T01:06:04.923Z,810.08
2019-04-25T01:07:04.945Z,810.08
2019-04-25T01:08:04.945Z,810.09
2019-04-25T01:09:04.962Z,810.10
2019-04-25T01:10:04.974Z,810.12
2019-04-25T01:11:04.986Z,810.13
2019-04-25T01:12:04.996Z,810.16
2019-04-25T01:13:05.022Z,810.13
2019-04-25T01:14:05.018Z,810.08
2019-04-25T01:15:05.026Z,810.07
2019-04-25T01:16:05.038Z,810.13
2019-04-25T01:17:05.054Z,810.13
2019-04-25T01:18:05.064Z,810.13
2019-04-25T01:19:05.077Z,810.14
2019-04-25T01:20:05.090Z,810.17
2019-04-25T01:21:05.103Z,810.14
2019-04-25T01:22:05.108Z,810.18
2019-04-25T01:23:05.118Z,810.20
2019-04-25T01:24:05.137Z,810.20
2019-04-25T01:25:05.142Z,810.19
2019-04-25T01:26:05.153Z,810.16
2019-04-25T01:27:05.424Z,810.13
2019-04-25T01:28:05.181Z,810.14
2019-04-25T01:29:05.189Z,810.17
2019-04-25T01:30:06.125Z,810.12
2019-04-25T01:31:05.213Z,810.13
2019-04-25T01:32:05.224Z,810.09
2019-04-25T01:33:05.257Z,810.13
2019-04-25T01:34:05.247Z,810.11
2019-04-25T01:35:05.262Z,810.19
2019-04-25T01:36:05.276Z,810.21
2019-04-25T01:37:05.282Z,810.21
2019-04-25T01:38:05.300Z,810.21
2019-04-25T01:39:05.306Z,810.17
2019-04-25T01:40:05.323Z,810.16
2019-04-25T01:41:05.336Z,810.19
2019-04-25T01:42:05.400Z,810.18
2019-04-25T01:43:05.351Z,810.19
2019-04-25T01:44:05.391Z,810.23
2019-04-25T01:45:05.381Z,810.20
2019-04-25T01:46:05.400Z,810.25
2019-04-25T01:47:05.401Z,810.27
2019-04-25T01:48:05.414Z,810.22
2019-04-25T01:49:05.424Z,810.25
2019-04-25T01:50:05.435Z,810.27
2019-04-25T01:51:05.449Z,810.25
2019-04-25T01:52:05.457Z,810.27
2019-04-25T01:53:05.472Z,810.25
2019-04-25T01:54:05.479Z,810.27
2019-04-25T01:55:05.664Z,810.23
2019-04-25T01:56:07.741Z,810.26
2019-04-25T01:57:05.516Z,810.24
2019-04-25T01:58:05.538Z,810.31
2019-04-25T01:59:05.536Z,810.27
2019-04-25T02:00:05.558Z,810.30
2019-04-25T02:01:05.563Z,810.27
2019-04-25T02:02:06.715Z,810.27
2019-04-25T02:03:05.586Z,810.26
2019-04-25T02:04:05.599Z,810.28
2019-04-25T02:05:05.606Z,810.32
2019-04-25T02:06:05.615Z,810.34
2019-04-25T02:07:05.632Z,810.32
2019-04-25T02:08:06.984Z,810.35
2019-04-25T02:09:05.653Z,810.38
2019-04-25T02:10:05.666Z,810.31
2019-04-25T02:11:05.696Z,810.28
2019-04-25T02:12:05.686Z,810.26
2019-04-25T02:13:05.696Z,810.23
2019-04-25T02:14:05.711Z,810.26
2019-04-25T02:15:06.181Z,810.22
2019-04-25T02:16:05.735Z,810.23
2019-04-25T02:17:05.749Z,810.22
2019-04-25T02:18:05.753Z,810.23
2019-04-25T02:19:05.764Z,810.23
2019-04-25T02:20:05.797Z,810.26
2019-04-25T02:21:05.789Z,810.27
2019-04-25T02:22:05.803Z,810.28
2019-04-25T02:23:05.815Z,810.25
2019-04-25T02:24:05.849Z,810.27
2019-04-25T02:25:05.839Z,810.25
2019-04-25T02:26:15.222Z,810.25
2019-04-25T02:27:05.859Z,810.27
2019-04-25T02:28:05.871Z,810.26
2019-04-25T02:29:05.881Z,810.26
2019-04-25T02:30:06.924Z,810.23
2019-04-25T02:31:08.827Z,810.20
2019-04-25T02:32:08.949Z,810.23
2019-04-25T02:33:08.916Z,810.21
2019-04-25T02:34:08.543Z,810.15
2019-04-25T02:35:09.374Z,810.14
2019-04-25T02:36:08.717Z,810.10
2019-04-25T02:37:09.445Z,810.11
2019-04-25T02:38:08.883Z,810.11
2019-04-25T02:39:08.954Z,810.08
2019-04-25T02:40:08.149Z,810.10
2019-04-25T02:41:08.693Z,810.07
2019-04-25T02:42:08.308Z,810.06
2019-04-25T02:43:08.026Z,810.05
2019-04-25T02:44:09.769Z,810.03
2019-04-25T02:45:08.157Z,809.98
2019-04-25T02:46:07.854Z,810.00
2019-04-25T02:47:08.153Z,809.99
2019-04-25T02:48:07.054Z,809.95
2019-04-25T02:49:08.808Z,809.94
2019-04-25T02:50:08.377Z,809.90
2019-04-25T02:51:07.522Z,809.87
2019-04-25T02:52:07.815Z,809.82
2019-04-25T02:53:07.363Z,809.81
2019-04-25T02:54:08.112Z,809.87
2019-04-25T02:55:10.535Z,809.89
2019-04-25T02:56:26.142Z,809.85
2019-04-25T02:57:08.220Z,809.90
2019-04-25T02:58:10.024Z,809.87
2019-04-25T02:59:08.772Z,809.95
2019-04-25T03:00:08.342Z,809.87
2019-04-25T03:01:16.583Z,809.87
2019-04-25T03:02:08.737Z,809.86
2019-04-25T03:03:08.297Z,809.85
2019-04-25T03:04:10.724Z,809.93
2019-04-25T03:05:09.578Z,809.88
2019-04-25T03:06:09.374Z,809.87
2019-04-25T03:07:08.153Z,809.82
2019-04-25T03:08:09.052Z,809.80
2019-04-25T03:09:08.127Z,809.79
2019-04-25T03:10:08.546Z,809.81
2019-04-25T03:11:07.947Z,809.81
2019-04-25T03:12:07.641Z,809.77
2019-04-25T03:13:10.332Z,809.77
2019-04-25T03:14:09.514Z,809.82
2019-04-25T03:15:09.695Z,809.81
2019-04-25T03:16:09.125Z,809.81
2019-04-25T03:17:09.394Z,809.82
2019-04-25T03:18:11.949Z,809.87
2019-04-25T03:19:07.845Z,809.86
2019-04-25T03:20:09.205Z,809.88
2019-04-25T03:21:13.449Z,809.89
2019-04-25T03:22:09.566Z,809.91
2019-04-25T03:23:08.978Z,809.96
2019-04-25T03:24:11.399Z,809.98
2019-04-25T03:25:10.812Z,810.00
2019-04-25T03:26:07.458Z,809.97
2019-04-25T03:27:07.396Z,809.98
2019-04-25T03:28:07.195Z,809.97
2019-04-25T03:29:07.285Z,809.94
2019-04-25T03:30:11.268Z,809.96
2019-04-25T03:31:13.028Z,809.91
2019-04-25T03:32:11.393Z,809.87
2019-04-25T03:33:10.494Z,809.84
2019-04-25T03:34:10.227Z,809.89
2019-04-25T03:35:07.148Z,809.87
2019-04-25T03:36:07.726Z,809.88
2019-04-25T03:37:07.588Z,809.90
2019-04-25T03:38:06.669Z,809.92
2019-04-25T03:39:06.771Z,809.97
2019-04-25T03:40:07.796Z,809.97
2019-04-25T03:41:07.043Z,810.01
2019-04-25T03:42:06.720Z,809.93
2019-04-25T03:43:07.087Z,809.94
2019-04-25T03:44:06.742Z,809.92
2019-04-25T03:45:07.160Z,809.93
2019-04-25T03:46:07.055Z,809.93
2019-04-25T03:47:07.755Z,809.90
2019-04-25T03:48:07.542Z,809.87
2019-04-25T03:49:07.543Z,809.87
2019-04-25T03:50:08.094Z,809.88
2019-04-25T03:51:06.875Z,809.91
2019-04-25T03:52:06.836Z,809.97
2019-04-25T03:53:06.844Z,809.93
2019-04-25T03:54:07.536Z,809.92
2019-04-25T03:55:07.721Z,809.95
2019-04-25T03:56:07.404Z,809.98
2019-04-25T03:57:07.529Z,809.96
2019-04-25T03:58:09.399Z,809.93
2019-04-25T03:59:07.232Z,809.96
2019-04-25T04:00:07.519Z,810.01
2019-04-25T04:01:09.255Z,809.98
2019-04-25T04:02:07.959Z,809.99
2019-04-25T04:03:07.882Z,810.01
2019-04-25T04:04:07.927Z,809.98
2019-04-25T04:05:08.247Z,810.07
2019-04-25T04:06:08.479Z,810.02
2019-04-25T04:07:09.501Z,810.04
2019-04-25T04:08:07.618Z,809.99
2019-04-25T04:09:07.895Z,809.98
2019-04-25T04:10:07.912Z,809.98
2019-04-25T04:11:07.710Z,809.95
2019-04-25T04:12:07.964Z,809.91
2019-04-25T04:13:07.489Z,809.93
2019-04-25T04:14:07.167Z,809.98
2019-04-25T04:15:07.119Z,810.01
2019-04-25T04:16:07.105Z,810.03
2019-04-25T04:17:07.714Z,810.05
2019-04-25T04:18:07.225Z,810.03
2019-04-25T04:19:07.158Z,810.01
2019-04-25T04:20:07.154Z,809.94
2019-04-25T04:21:07.160Z,809.94
2019-04-25T04:22:07.174Z,809.94
2019-04-25T04:23:07.227Z,809.92
2019-04-25T04:24:07.551Z,809.92
2019-04-25T04:25:07.554Z,809.90
2019-04-25T04:26:07.422Z,809.90
2019-04-25T04:27:09.046Z,809.93
2019-04-25T04:28:07.668Z,809.96
2019-04-25T04:29:07.812Z,809.91
2019-04-25T04:30:08.026Z,809.90
2019-04-25T04:31:08.284Z,809.98
2019-04-25T04:32:07.290Z,810.01
2019-04-25T04:33:07.302Z,809.92
2019-04-25T04:34:07.315Z,809.95
2019-04-25T04:35:07.347Z,809.89
2019-04-25T04:36:07.446Z,809.99
2019-04-25T04:37:07.587Z,810.04
2019-04-25T04:38:08.142Z,810.01
2019-04-25T04:39:07.766Z,810.01
2019-04-25T04:40:08.059Z,810.01
2019-04-25T04:41:08.093Z,809.87
2019-04-25T04:42:07.556Z,809.84
2019-04-25T04:43:08.062Z,809.86
2019-04-25T04:44:08.216Z,809.84
2019-04-25T04:45:08.363Z,809.88
2019-04-25T04:46:08.572Z,809.87
2019-04-25T04:47:08.486Z,809.92
2019-04-25T04:48:08.675Z,809.92
2019-04-25T04:49:08.681Z,809.89
2019-04-25T04:50:08.947Z,809.90
2019-04-25T04:51:08.946Z,809.93
2019-04-25T04:52:08.298Z,809.91
2019-04-25T04:53:07.522Z,809.96
2019-04-25T04:54:07.536Z,810.08
2019-04-25T04:55:09.674Z,810.08
2019-04-25T04:56:07.561Z,810.01
2019-04-25T04:57:18.611Z,809.95
2019-04-25T04:58:07.582Z,809.99
2019-04-25T04:59:07.589Z,809.97
2019-04-25T05:00:07.601Z,809.99
2019-04-25T05:01:07.614Z,809.99
2019-04-25T05:02:07.626Z,810.05
2019-04-25T05:03:07.639Z,810.03
2019-04-25T05:04:07.650Z,810.03
2019-04-25T05:05:07.661Z,809.99
2019-04-25T05:06:07.668Z,809.99
2019-04-25T05:07:07.683Z,810.02
2019-04-25T05:08:07.690Z,810.04
2019-04-25T05:09:07.702Z,810.06
2019-04-25T05:10:07.717Z,810.07
2019-04-25T05:11:07.725Z,810.08
2019-04-25T05:12:07.738Z,810.02
2019-04-25T05:13:07.750Z,810.04
2019-04-25T05:14:07.757Z,809.99
2019-04-25T05:15:07.770Z,810.09
2019-04-25T05:16:07.782Z,810.06
2019-04-25T05:17:07.793Z,810.08
2019-04-25T05:18:07.803Z,810.04
2019-04-25T05:19:07.814Z,810.05
2019-04-25T05:20:07.827Z,810.07
2019-04-25T05:21:07.841Z,810.03
2019-04-25T05:22:07.883Z,810.05
2019-04-25T05:23:08.993Z,810.00
2019-04-25T05:24:07.876Z,809.99
2019-04-25T05:25:07.887Z,810.01
2019-04-25T05:26:07.900Z,810.08
2019-04-25T05:27:07.907Z,810.06
2019-04-25T05:28:07.926Z,810.03
2019-04-25T05:29:07.929Z,810.02
2019-04-25T05:30:07.941Z,810.00
2019-04-25T05:31:07.969Z,810.04
2019-04-25T05:32:07.968Z,810.01
2019-04-25T05:33:07.976Z,810.04
2019-04-25T05:34:07.991Z,810.08
2019-04-25T05:35:07.999Z,810.09
2019-04-25T05:36:08.014Z,810.03
2019-04-25T05:37:08.023Z,810.02
2019-04-25T05:38:08.037Z,809.99
2019-04-25T05:39:08.049Z,810.00
2019-04-25T05:40:08.061Z,809.93
2019-04-25T05:41:08.072Z,809.97
2019-04-25T05:42:08.106Z,809.96
2019-04-25T05:43:08.092Z,810.00
2019-04-25T05:44:08.105Z,810.08
2019-04-25T05:45:08.116Z,810.08
2019-04-25T05:46:08.132Z,810.14
2019-04-25T05:47:08.140Z,810.14
2019-04-25T05:48:08.152Z,810.16
2019-04-25T05:49:08.162Z,810.14
2019-04-25T05:50:08.175Z,810.18
2019-04-25T05:51:08.188Z,810.17
2019-04-25T05:52:08.201Z,810.15
2019-04-25T05:53:08.209Z,810.14
2019-04-25T05:54:08.240Z,810.14
2019-04-25T05:55:08.236Z,810.15
2019-04-25T05:56:08.247Z,810.14
2019-04-25T05:57:08.259Z,810.18
2019-04-25T05:58:08.272Z,810.18
2019-04-25T05:59:08.279Z,810.18
2019-04-25T06:00:08.291Z,810.18
2019-04-25T06:01:08.305Z,810.17
2019-04-25T06:02:08.314Z,810.17
2019-04-25T06:03:08.326Z,810.14
2019-04-25T06:04:08.340Z,810.19
2019-04-25T06:05:08.349Z,810.19
2019-04-25T06:06:08.362Z,810.16
2019-04-25T06:07:08.373Z,810.19
2019-04-25T06:08:08.386Z,810.19
2019-04-25T06:09:08.397Z,810.22
2019-04-25T06:10:08.409Z,810.22
2019-04-25T06:11:08.425Z,810.19
2019-04-25T06:12:08.437Z,810.24
2019-04-25T06:13:08.517Z,810.29
2019-04-25T06:14:08.459Z,810.27
2019-04-25T06:15:08.471Z,810.34
2019-04-25T06:16:08.507Z,810.34
2019-04-25T06:17:08.496Z,810.32
2019-04-25T06:18:08.508Z,810.31
2019-04-25T06:19:14.289Z,810.30
2019-04-25T06:20:08.532Z,810.38
2019-04-25T06:21:08.543Z,810.38
2019-04-25T06:22:08.554Z,810.41
2019-04-25T06:23:08.563Z,810.37
2019-04-25T06:24:08.575Z,810.39
2019-04-25T06:25:12.845Z,810.40
2019-04-25T06:26:19.201Z,810.38
2019-04-25T06:27:08.614Z,810.40
2019-04-25T06:28:08.629Z,810.38
2019-04-25T06:29:08.635Z,810.42
2019-04-25T06:30:08.647Z,810.47
2019-04-25T06:31:10.230Z,810.48
2019-04-25T06:32:08.832Z,810.49
2019-04-25T06:33:08.686Z,810.50
2019-04-25T06:34:08.696Z,810.52
2019-04-25T06:35:08.705Z,810.45
2019-04-25T06:36:08.720Z,810.39
2019-04-25T06:37:08.734Z,810.37
2019-04-25T06:38:08.742Z,810.41
2019-04-25T06:39:08.753Z,810.43
2019-04-25T06:40:08.765Z,810.47
2019-04-25T06:41:08.777Z,810.46
2019-04-25T06:42:08.789Z,810.47
2019-04-25T06:43:08.804Z,810.44
2019-04-25T06:44:08.818Z,810.39
2019-04-25T06:45:08.828Z,810.45
2019-04-25T06:46:08.848Z,810.46
2019-04-25T06:47:08.850Z,810.51
2019-04-25T06:48:08.867Z,810.46
2019-04-25T06:49:08.882Z,810.30
2019-04-25T06:50:08.892Z,810.32
2019-04-25T06:51:08.900Z,810.34
2019-04-25T06:52:08.911Z,810.29
2019-04-25T06:53:08.932Z,810.32
2019-04-25T06:54:08.939Z,810.23
2019-04-25T06:55:08.947Z,810.31
2019-04-25T06:56:08.963Z,810.29
2019-04-25T06:57:08.977Z,810.32
2019-04-25T06:58:12.206Z,810.35
2019-04-25T06:59:09.000Z,810.35
2019-04-25T07:00:09.012Z,810.34
2019-04-25T07:01:09.024Z,810.27
2019-04-25T07:02:09.037Z,810.30
2019-04-25T07:03:09.047Z,810.24
2019-04-25T07:04:09.062Z,810.19
2019-04-25T07:05:09.076Z,810.18
2019-04-25T07:06:09.086Z,810.20
2019-04-25T07:07:12.042Z,810.23
2019-04-25T07:08:09.111Z,810.24
2019-04-25T07:09:09.121Z,810.21
2019-04-25T07:10:09.131Z,810.23
2019-04-25T07:11:09.146Z,810.24
2019-04-25T07:12:09.156Z,810.24
2019-04-25T07:13:09.169Z,810.20
2019-04-25T07:14:09.181Z,810.21
2019-04-25T07:15:09.192Z,810.26
2019-04-25T07:16:09.207Z,810.27
2019-04-25T07:17:09.219Z,810.31
2019-04-25T07:18:09.230Z,810.29
2019-04-25T07:19:09.253Z,810.28
2019-04-25T07:20:09.256Z,810.32
2019-04-25T07:21:09.271Z,810.35
2019-04-25T07:22:09.287Z,810.34
2019-04-25T07:23:09.315Z,810.33
2019-04-25T07:24:09.320Z,810.37
2019-04-25T07:25:09.326Z,810.35
2019-04-25T07:26:09.333Z,810.38
2019-04-25T07:27:09.347Z,810.39
2019-04-25T07:28:21.522Z,810.36
2019-04-25T07:29:09.373Z,810.29
2019-04-25T07:30:09.394Z,810.33
2019-04-25T07:31:09.396Z,810.38
2019-04-25T07:32:09.409Z,810.35
2019-04-25T07:33:09.424Z,810.35
2019-04-25T07:34:09.439Z,810.34
2019-04-25T07:35:09.448Z,810.32
2019-04-25T07:36:09.465Z,810.37
2019-04-25T07:37:09.475Z,810.34
2019-04-25T07:38:09.487Z,810.35
2019-04-25T07:39:10.527Z,810.41
2019-04-25T07:40:09.521Z,810.48
2019-04-25T07:41:09.532Z,810.45
2019-04-25T07:42:09.543Z,810.45
2019-04-25T07:43:09.559Z,810.45
2019-04-25T07:44:09.569Z,810.45
2019-04-25T07:45:09.650Z,810.48
2019-04-25T07:46:09.597Z,810.49
2019-04-25T07:47:09.607Z,810.48
2019-04-25T07:48:09.621Z,810.49
2019-04-25T07:49:09.644Z,810.51
2019-04-25T07:50:09.647Z,810.50
2019-04-25T07:51:09.662Z,810.43
2019-04-25T07:52:11.534Z,810.48
2019-04-25T07:53:09.690Z,810.46
2019-04-25T07:54:09.701Z,810.52
2019-04-25T07:55:09.720Z,810.56
2019-04-25T07:56:09.729Z,810.61
2019-04-25T07:57:09.741Z,810.59
2019-04-25T07:58:09.760Z,810.51
2019-04-25T07:59:09.772Z,810.50
2019-04-25T08:00:09.783Z,810.47
2019-04-25T08:01:09.802Z,810.58
2019-04-25T08:02:09.813Z,810.56
2019-04-25T08:03:09.826Z,810.50
2019-04-25T08:04:09.839Z,810.51
2019-04-25T08:05:09.853Z,810.52
2019-04-25T08:06:09.864Z,810.52
2019-04-25T08:07:09.880Z,810.51
2019-04-25T08:08:09.894Z,810.50
2019-04-25T08:09:09.911Z,810.48
2019-04-25T08:10:09.921Z,810.45
2019-04-25T08:11:09.937Z,810.48
2019-04-25T08:12:09.945Z,810.46
2019-04-25T08:13:09.959Z,810.47
2019-04-25T08:14:09.975Z,810.54
2019-04-25T08:15:09.990Z,810.51
2019-04-25T08:16:10.004Z,810.47
2019-04-25T08:17:10.018Z,810.52
2019-04-25T08:18:10.034Z,810.51
2019-04-25T08:19:10.042Z,810.51
2019-04-25T08:20:10.060Z,810.52
2019-04-25T08:21:10.073Z,810.56
2019-04-25T08:22:10.087Z,810.57
2019-04-25T08:23:10.097Z,810.56
2019-04-25T08:24:10.113Z,810.56
2019-04-25T08:25:10.137Z,810.57
2019-04-25T08:26:10.142Z,810.49
2019-04-25T08:27:10.153Z,810.55
2019-04-25T08:28:10.167Z,810.50
2019-04-25T08:29:10.186Z,810.51
2019-04-25T08:30:10.198Z,810.59
2019-04-25T08:31:10.227Z,810.52
2019-04-25T08:32:10.226Z,810.53
2019-04-25T08:33:10.244Z,810.61
2019-04-25T08:34:10.267Z,810.60
2019-04-25T08:35:10.269Z,810.58
2019-04-25T08:36:10.279Z,810.55
2019-04-25T08:37:18.006Z,810.52
2019-04-25T08:38:10.308Z,810.50
2019-04-25T08:39:10.324Z,810.52
2019-04-25T08:40:10.339Z,810.54
2019-04-25T08:41:10.357Z,810.53
2019-04-25T08:42:10.368Z,810.45
2019-04-25T08:43:10.380Z,810.50
2019-04-25T08:44:10.397Z,810.48
2019-04-25T08:45:10.407Z,810.47
2019-04-25T08:46:10.420Z,810.45
2019-04-25T08:47:10.437Z,810.50
2019-04-25T08:48:10.450Z,810.56
2019-04-25T08:49:10.463Z,810.53
2019-04-25T08:50:10.482Z,810.55
2019-04-25T08:51:10.496Z,810.57
2019-04-25T08:52:10.507Z,810.56
2019-04-25T08:53:10.528Z,810.57
2019-04-25T08:54:10.546Z,810.54
2019-04-25T08:55:10.551Z,810.58
2019-04-25T08:56:10.570Z,810.62
2019-04-25T08:57:10.583Z,810.60
2019-04-25T08:58:10.596Z,810.67
2019-04-25T08:59:10.621Z,810.64
2019-04-25T09:00:10.625Z,810.68
2019-04-25T09:01:10.641Z,810.66
2019-04-25T09:02:10.656Z,810.63
2019-04-25T09:03:10.675Z,810.68
2019-04-25T09:04:10.685Z,810.70
2019-04-25T09:05:10.699Z,810.69
2019-04-25T09:06:10.709Z,810.81
2019-04-25T09:07:10.725Z,810.70
2019-04-25T09:08:10.744Z,810.74
2019-04-25T09:09:10.753Z,810.74
2019-04-25T09:10:10.776Z,810.68
2019-04-25T09:11:10.784Z,810.76
2019-04-25T09:12:10.798Z,810.69
2019-04-25T09:13:10.816Z,810.70
2019-04-25T09:14:10.823Z,810.75
2019-04-25T09:15:10.837Z,810.68
2019-04-25T09:16:10.852Z,810.71
2019-04-25T09:17:10.870Z,810.72
2019-04-25T09:18:10.886Z,810.73
2019-04-25T09:19:10.895Z,810.89
2019-04-25T09:20:10.908Z,810.80
2019-04-25T09:21:10.927Z,810.81
2019-04-25T09:22:10.940Z,810.83
2019-04-25T09:23:10.950Z,810.95
2019-04-25T09:24:10.965Z,810.86
2019-04-25T09:25:10.983Z,810.92
2019-04-25T09:26:10.997Z,810.95
2019-04-25T09:27:11.015Z,811.01
2019-04-25T09:28:11.022Z,811.01
2019-04-25T09:29:18.823Z,810.94
2019-04-25T09:30:11.051Z,811.04
2019-04-25T09:31:11.066Z,811.00
2019-04-25T09:32:11.085Z,811.01
2019-04-25T09:33:11.100Z,810.98
2019-04-25T09:34:11.113Z,811.00
2019-04-25T09:35:11.128Z,811.02
2019-04-25T09:36:11.142Z,811.00
2019-04-25T09:37:11.152Z,811.00
2019-04-25T09:38:11.172Z,811.03
2019-04-25T09:39:11.186Z,811.07
2019-04-25T09:40:11.197Z,811.00
2019-04-25T09:41:11.211Z,810.97
2019-04-25T09:42:11.230Z,811.05
2019-04-25T09:43:11.242Z,810.98
2019-04-25T09:44:11.258Z,811.05
2019-04-25T09:45:11.274Z,811.02
2019-04-25T09:46:11.287Z,811.13
2019-04-25T09:47:11.299Z,811.17
2019-04-25T09:48:11.319Z,811.14
2019-04-25T09:49:11.332Z,811.05
2019-04-25T09:50:11.345Z,811.10
2019-04-25T09:51:11.360Z,811.09
2019-04-25T09:52:11.373Z,811.07
2019-04-25T09:53:21.047Z,811.04
2019-04-25T09:54:11.404Z,811.03
2019-04-25T09:55:11.421Z,811.09
2019-04-25T09:56:11.436Z,811.10
2019-04-25T09:57:11.451Z,811.06
2019-04-25T09:58:11.463Z,811.09
2019-04-25T09:59:11.480Z,811.17
2019-04-25T10:00:13.183Z,811.19
2019-04-25T10:01:11.508Z,811.23
2019-04-25T10:02:11.524Z,811.20
2019-04-25T10:03:11.539Z,811.15
2019-04-25T10:04:11.555Z,811.17
2019-04-25T10:05:11.592Z,811.13
2019-04-25T10:06:13.294Z,811.18
2019-04-25T10:07:11.605Z,811.16
2019-04-25T10:08:13.376Z,811.15
2019-04-25T10:09:11.630Z,811.18
2019-04-25T10:10:11.645Z,811.22
2019-04-25T10:11:11.676Z,811.17
2019-04-25T10:12:12.958Z,811.17
2019-04-25T10:13:11.695Z,811.16
2019-04-25T10:14:13.521Z,811.12
2019-04-25T10:15:11.742Z,811.16
2019-04-25T10:16:11.743Z,811.16
2019-04-25T10:17:11.756Z,811.12
2019-04-25T10:18:14.127Z,811.04
2019-04-25T10:19:13.264Z,811.05
2019-04-25T10:20:14.472Z,811.11
2019-04-25T10:21:11.814Z,811.19
2019-04-25T10:22:13.569Z,811.29
2019-04-25T10:23:11.843Z,811.18
2019-04-25T10:24:13.547Z,811.11
2019-04-25T10:25:13.270Z,811.00
2019-04-25T10:26:11.892Z,811.26
2019-04-25T10:27:11.907Z,811.10
2019-04-25T10:28:13.243Z,811.13
2019-04-25T10:29:11.939Z,811.17
2019-04-25T10:30:19.056Z,811.04
2019-04-25T10:31:13.553Z,811.26
2019-04-25T10:32:13.299Z,811.13
2019-04-25T10:33:11.994Z,810.91
2019-04-25T10:34:12.005Z,810.96
2019-04-25T10:35:14.659Z,811.01
2019-04-25T10:36:12.040Z,810.93
2019-04-25T10:37:13.713Z,810.98
2019-04-25T10:38:13.799Z,811.06
2019-04-25T10:39:12.132Z,811.08
2019-04-25T10:40:13.383Z,811.05
2019-04-25T10:41:12.113Z,811.08
2019-04-25T10:42:13.605Z,811.13
2019-04-25T10:43:12.153Z,811.03
2019-04-25T10:44:14.003Z,810.99
2019-04-25T10:45:22.537Z,811.02
2019-04-25T10:46:13.982Z,810.84
2019-04-25T10:47:12.196Z,811.00
2019-04-25T10:48:13.681Z,811.01
2019-04-25T10:49:12.230Z,810.96
2019-04-25T10:50:13.492Z,810.89
2019-04-25T10:51:13.942Z,810.90
2019-04-25T10:52:12.271Z,810.81
2019-04-25T10:53:12.286Z,810.74
2019-04-25T10:54:12.301Z,810.84
2019-04-25T10:55:14.151Z,810.78
2019-04-25T10:56:13.994Z,810.79
2019-04-25T10:57:12.345Z,810.84
2019-04-25T10:58:14.101Z,810.86
2019-04-25T10:59:12.372Z,810.89
2019-04-25T11:00:13.733Z,810.94
2019-04-25T11:01:15.082Z,810.89
2019-04-25T11:02:15.079Z,810.95
2019-04-25T11:03:12.434Z,810.82
2019-04-25T11:04:13.843Z,810.83
2019-04-25T11:05:13.737Z,810.88
2019-04-25T11:06:14.085Z,810.88
2019-04-25T11:07:13.638Z,810.87
2019-04-25T11:08:13.746Z,810.79
2019-04-25T11:09:13.780Z,810.76
2019-04-25T11:10:13.968Z,810.72
2019-04-25T11:11:13.828Z,810.80
2019-04-25T11:12:12.624Z,810.79
2019-04-25T11:13:14.314Z,810.89
2019-04-25T11:14:13.529Z,810.94
2019-04-25T11:15:14.324Z,810.96
2019-04-25T11:16:13.784Z,810.87
2019-04-25T11:17:13.227Z,810.91
2019-04-25T11:18:13.169Z,810.68
2019-04-25T11:19:13.574Z,810.80
2019-04-25T11:20:14.372Z,810.87
2019-04-25T11:21:13.807Z,810.80
2019-04-25T11:22:13.457Z,810.70
2019-04-25T11:23:13.990Z,810.71
2019-04-25T11:24:14.219Z,810.75
2019-04-25T11:25:13.549Z,810.80
2019-04-25T11:26:13.879Z,810.81
2019-04-25T11:27:13.527Z,810.84
2019-04-25T11:28:14.344Z,811.01
2019-04-25T11:29:13.322Z,811.02
2019-04-25T11:30:13.898Z,811.00
2019-04-25T11:31:14.260Z,810.93
2019-04-25T11:32:13.596Z,810.93
2019-04-25T11:33:14.327Z,810.92
2019-04-25T11:34:13.922Z,810.91
2019-04-25T11:35:13.932Z,811.04
2019-04-25T11:36:13.330Z,811.06
2019-04-25T11:37:14.699Z,811.08
2019-04-25T11:38:13.788Z,811.18
2019-04-25T11:39:13.571Z,811.08
2019-04-25T11:40:14.436Z,810.87
2019-04-25T11:41:14.136Z,810.82
2019-04-25T11:42:14.774Z,810.79
2019-04-25T11:43:14.160Z,810.76
2019-04-25T11:44:13.883Z,810.78
2019-04-25T11:45:14.374Z,810.77
2019-04-25T11:46:14.068Z,810.88
2019-04-25T11:47:15.152Z,810.92
2019-04-25T11:48:13.493Z,810.83
2019-04-25T11:49:15.121Z,810.83
2019-04-25T11:50:14.009Z,810.91
2019-04-25T11:51:13.851Z,810.97
2019-04-25T11:52:21.383Z,810.82
2019-04-25T11:53:13.196Z,810.79
2019-04-25T11:54:13.936Z,810.93
2019-04-25T11:55:14.315Z,811.09
2019-04-25T11:56:13.778Z,810.89
2019-04-25T11:57:13.926Z,810.93
2019-04-25T11:58:14.285Z,811.12
2019-04-25T11:59:13.778Z,811.18
2019-04-25T12:00:21.958Z,811.11
2019-04-25T12:01:13.817Z,811.16
2019-04-25T12:02:13.417Z,810.83
2019-04-25T12:03:13.378Z,810.94
2019-04-25T12:04:14.845Z,810.86
2019-04-25T12:05:14.927Z,810.96
2019-04-25T12:06:14.133Z,811.03
2019-04-25T12:07:14.341Z,811.05
2019-04-25T12:08:13.519Z,811.00
2019-04-25T12:09:13.911Z,811.00
2019-04-25T12:10:13.493Z,811.10
2019-04-25T12:11:13.927Z,811.01
2019-04-25T12:12:14.686Z,811.10
2019-04-25T12:13:15.380Z,811.01
2019-04-25T12:14:14.888Z,811.04
2019-04-25T12:15:14.897Z,811.23
2019-04-25T12:16:14.434Z,811.32
2019-04-25T12:17:13.584Z,810.92
2019-04-25T12:18:13.814Z,811.03
2019-04-25T12:19:13.997Z,810.97
2019-04-25T12:20:14.298Z,811.04
2019-04-25T12:21:13.714Z,811.06
2019-04-25T12:22:13.655Z,810.95
2019-04-25T12:23:14.430Z,811.13
2019-04-25T12:24:13.858Z,811.07
2019-04-25T12:25:15.055Z,811.05
2019-04-25T12:26:14.302Z,810.97
2019-04-25T12:27:13.732Z,810.85
2019-04-25T12:28:14.152Z,811.05